createdAt,value
2022-09-20T00:01:33.378Z,2.53
2022-09-20T00:04:05.085Z,2.35
2022-09-20T00:06:32.697Z,3.22
2022-09-20T00:09:02.942Z,2.38
2022-09-20T00:11:32.250Z,2.30
2022-09-20T00:14:00.546Z,2.42
2022-09-20T00:16:31.495Z,2.60
2022-09-20T00:18:59.752Z,2.38
2022-09-20T00:21:28.670Z,2.45
2022-09-20T00:23:57.339Z,2.25
2022-09-20T00:26:24.500Z,2.88
2022-09-20T00:28:51.776Z,3.00
2022-09-20T00:31:23.518Z,2.38
2022-09-20T00:34:11.895Z,3.33
2022-09-20T00:36:40.862Z,2.83
2022-09-20T00:39:07.282Z,3.15
2022-09-20T00:41:36.086Z,2.88
2022-09-20T00:44:03.968Z,3.38
2022-09-20T00:46:37.913Z,3.65
2022-09-20T00:49:15.717Z,3.40
2022-09-20T00:51:47.066Z,3.78
2022-09-20T00:54:20.518Z,2.90
2022-09-20T00:56:47.242Z,3.08
2022-09-20T00:59:27.774Z,2.83
2022-09-20T01:01:59.505Z,2.85
2022-09-20T01:04:28.203Z,2.53
2022-09-20T01:07:02.109Z,3.28
2022-09-20T01:09:28.986Z,3.15
2022-09-20T01:11:58.045Z,3.50
2022-09-20T01:14:27.455Z,1.90
2022-09-20T01:16:57.551Z,1.27
2022-09-20T01:19:32.757Z,1.55
2022-09-20T01:22:04.182Z,1.40
2022-09-20T01:24:53.753Z,1.80
2022-09-20T01:27:40.628Z,2.47
2022-09-20T01:30:13.468Z,2.00
2022-09-20T01:32:44.202Z,1.75
2022-09-20T01:35:12.021Z,2.22
2022-09-20T01:38:05.090Z,1.90
2022-09-20T01:40:49.975Z,2.17
2022-09-20T01:43:52.942Z,1.52
2022-09-20T01:46:31.451Z,2.00
2022-09-20T01:49:52.124Z,1.83
2022-09-20T01:52:46.507Z,1.42
2022-09-20T01:55:34.399Z,2.45
2022-09-20T01:58:24.601Z,1.83
2022-09-20T02:01:22.205Z,3.28
2022-09-20T02:03:53.818Z,3.42
2022-09-20T02:06:39.263Z,3.35
2022-09-20T02:09:14.289Z,3.17
2022-09-20T02:12:33.261Z,2.70
2022-09-20T02:15:19.678Z,3.22
2022-09-20T02:17:49.562Z,3.22
2022-09-20T02:20:34.602Z,2.90
2022-09-20T02:23:15.529Z,2.35
2022-09-20T02:26:03.602Z,1.95
2022-09-20T02:29:02.793Z,2.47
2022-09-20T02:31:53.388Z,3.00
2022-09-20T02:34:29.220Z,2.58
2022-09-20T02:37:18.609Z,1.73
2022-09-20T02:40:06.595Z,2.53
2022-09-20T02:42:45.924Z,1.98
2022-09-20T02:45:22.770Z,1.40
2022-09-20T02:47:49.708Z,2.35
2022-09-20T02:50:38.474Z,2.10
2022-09-20T02:53:30.016Z,2.63
2022-09-20T02:56:09.352Z,1.95
2022-09-20T02:59:25.507Z,2.60
2022-09-20T03:02:06.258Z,1.58
2022-09-20T03:04:52.082Z,1.50
2022-09-20T03:07:39.854Z,2.10
2022-09-20T03:10:26.000Z,1.58
2022-09-20T03:13:18.625Z,2.17
2022-09-20T03:19:09.081Z,1.80
2022-09-20T03:22:17.555Z,2.38
2022-09-20T03:25:02.735Z,1.83
2022-09-20T03:27:41.478Z,1.85
2022-09-20T03:30:27.655Z,1.73
2022-09-20T03:33:24.535Z,1.60
2022-09-20T03:36:08.649Z,2.40
2022-09-20T03:38:37.160Z,2.30
2022-09-20T03:41:12.380Z,1.55
2022-09-20T03:43:51.411Z,2.05
2022-09-20T03:46:19.563Z,1.88
2022-09-20T03:49:04.377Z,1.63
2022-09-20T03:51:51.756Z,1.48
2022-09-20T03:54:37.044Z,1.88
2022-09-20T03:57:14.310Z,1.70
2022-09-20T04:00:20.708Z,1.42
2022-09-20T04:03:21.129Z,1.95
2022-09-20T04:06:14.782Z,2.90
2022-09-20T04:08:44.221Z,2.03
2022-09-20T04:11:20.825Z,1.83
2022-09-20T04:14:31.038Z,3.60
2022-09-20T04:17:15.792Z,2.30
2022-09-20T04:20:12.577Z,2.35
2022-09-20T04:22:43.352Z,2.00
2022-09-20T04:25:17.592Z,1.95
2022-09-20T04:27:50.031Z,2.63
2022-09-20T04:30:21.014Z,2.17
2022-09-20T04:33:12.036Z,2.80
2022-09-20T04:36:18.602Z,2.72
2022-09-20T04:38:55.394Z,2.78
2022-09-20T04:41:43.072Z,2.92
2022-09-20T04:44:37.021Z,2.58
2022-09-20T04:47:33.889Z,2.78
2022-09-20T04:50:25.195Z,2.17
2022-09-20T04:53:17.216Z,2.80
2022-09-20T04:55:53.041Z,2.13
2022-09-20T04:58:42.164Z,2.05
2022-09-20T05:01:37.023Z,1.33
2022-09-20T05:04:38.227Z,1.88
2022-09-20T05:07:42.382Z,2.13
2022-09-20T05:10:36.503Z,2.92
2022-09-20T05:13:30.289Z,1.83
2022-09-20T05:16:01.097Z,2.03
2022-09-20T05:19:04.622Z,3.08
2022-09-20T05:21:52.665Z,1.83
2022-09-20T05:24:53.986Z,1.98
2022-09-20T05:27:41.956Z,1.85
2022-09-20T05:30:16.620Z,1.83
2022-09-20T05:33:20.437Z,1.52
2022-09-20T05:36:02.206Z,1.95
2022-09-20T05:38:52.877Z,1.38
2022-09-20T05:41:52.409Z,3.65
2022-09-20T05:44:24.694Z,2.88
2022-09-20T05:47:25.094Z,3.50
2022-09-20T05:50:28.334Z,2.83
2022-09-20T05:52:58.519Z,3.05
2022-09-20T05:56:01.784Z,2.90
2022-09-20T05:58:43.218Z,3.00
2022-09-20T06:01:39.708Z,2.70
2022-09-20T06:04:27.118Z,2.53
2022-09-20T06:07:28.052Z,2.90
2022-09-20T06:10:24.613Z,2.83
2022-09-20T06:13:34.596Z,3.28
2022-09-20T06:16:06.794Z,2.35
2022-09-20T06:18:39.114Z,2.80
2022-09-20T06:24:00.862Z,3.08
2022-09-20T06:26:33.759Z,3.67
2022-09-20T06:29:08.360Z,2.83
2022-09-20T06:31:38.010Z,3.83
2022-09-20T06:34:08.918Z,3.22
2022-09-20T06:36:58.132Z,3.50
2022-09-20T06:40:08.379Z,3.08
2022-09-20T06:42:36.064Z,2.28
2022-09-20T06:45:04.773Z,3.33
2022-09-20T06:47:32.406Z,2.35
2022-09-20T06:50:06.431Z,3.08
2022-09-20T06:52:37.065Z,2.15
2022-09-20T06:55:07.390Z,2.97
2022-09-20T06:57:37.813Z,4.15
2022-09-20T07:00:06.616Z,3.00
2022-09-20T07:02:33.137Z,3.53
2022-09-20T07:05:04.651Z,2.17
2022-09-20T07:07:31.131Z,2.97
2022-09-20T07:09:58.453Z,2.95
2022-09-20T07:12:25.177Z,3.35
2022-09-20T07:14:51.616Z,3.40
2022-09-20T07:17:18.008Z,3.33
2022-09-20T07:19:44.406Z,3.58
2022-09-20T07:22:10.979Z,2.20
2022-09-20T07:24:41.196Z,2.88
2022-09-20T07:27:11.207Z,3.70
2022-09-20T07:29:38.013Z,3.35
2022-09-20T07:32:07.031Z,4.60
2022-09-20T07:34:35.655Z,3.28
2022-09-20T07:37:02.359Z,3.40
2022-09-20T07:39:28.786Z,3.13
2022-09-20T07:41:57.580Z,3.20
2022-09-20T07:44:24.896Z,2.72
2022-09-20T07:46:53.237Z,3.17
2022-09-20T07:49:19.957Z,2.88
2022-09-20T07:51:46.512Z,2.53
2022-09-20T07:54:12.883Z,3.17
2022-09-20T07:56:42.108Z,3.88
2022-09-20T07:59:11.196Z,3.38
2022-09-20T08:01:40.675Z,2.60
2022-09-20T08:04:08.783Z,2.88
2022-09-20T08:06:40.532Z,3.10
2022-09-20T08:09:11.100Z,3.15
2022-09-20T08:11:39.423Z,3.47
2022-09-20T08:14:17.871Z,4.10
2022-09-20T08:16:48.397Z,3.60
2022-09-20T08:19:20.932Z,4.05
2022-09-20T08:21:47.860Z,4.38
2022-09-20T08:24:17.131Z,3.20
2022-09-20T08:26:44.387Z,4.13
2022-09-20T08:29:11.572Z,4.18
2022-09-20T08:31:42.393Z,4.25
2022-09-20T08:34:11.570Z,3.60
2022-09-20T08:36:42.609Z,3.55
2022-09-20T08:42:14.570Z,3.85
2022-09-20T08:44:59.982Z,4.20
2022-09-20T08:47:35.439Z,4.90
2022-09-20T08:50:09.545Z,6.38
2022-09-20T08:52:39.815Z,4.45
2022-09-20T08:55:15.425Z,5.28
2022-09-20T08:57:48.668Z,4.55
2022-09-20T09:00:21.135Z,4.78
2022-09-20T09:02:53.827Z,4.25
2022-09-20T09:05:32.316Z,3.65
2022-09-20T09:08:00.873Z,5.22
2022-09-20T09:10:42.880Z,5.43
2022-09-20T09:15:53.429Z,5.35
2022-09-20T09:18:19.892Z,4.88
2022-09-20T09:20:54.942Z,4.43
2022-09-20T09:23:27.202Z,4.68
2022-09-20T09:26:02.909Z,4.50
2022-09-20T09:28:31.707Z,5.15
2022-09-20T09:31:25.687Z,4.32
2022-09-20T09:33:52.168Z,4.38
2022-09-20T09:36:25.725Z,4.68
2022-09-20T09:39:27.588Z,4.28
2022-09-20T09:41:54.767Z,3.85
2022-09-20T09:44:27.616Z,3.92
2022-09-20T09:46:56.525Z,4.05
2022-09-20T09:49:30.174Z,4.30
2022-09-20T09:52:18.131Z,3.28
2022-09-20T09:54:50.791Z,4.55
2022-09-20T09:57:58.169Z,3.78
2022-09-20T10:00:27.071Z,3.83
2022-09-20T10:03:05.389Z,2.80
2022-09-20T10:06:00.105Z,2.47
2022-09-20T10:09:08.240Z,2.95
2022-09-20T10:12:00.360Z,3.28
2022-09-20T10:14:53.908Z,3.17
2022-09-20T10:17:33.016Z,2.67
2022-09-20T10:20:08.301Z,3.38
2022-09-20T10:23:00.300Z,2.75
2022-09-20T10:26:04.495Z,2.42
2022-09-20T10:28:57.400Z,2.72
2022-09-20T10:32:08.034Z,2.55
2022-09-20T10:35:06.224Z,2.58
2022-09-20T10:37:56.875Z,2.90
2022-09-20T10:40:49.384Z,2.33
2022-09-20T10:43:30.261Z,1.90
2022-09-20T10:46:33.399Z,2.30
2022-09-20T10:49:18.164Z,2.42
2022-09-20T10:52:02.651Z,2.67
2022-09-20T10:54:34.909Z,2.60
2022-09-20T10:57:32.658Z,2.20
2022-09-20T11:00:21.059Z,2.53
2022-09-20T11:03:23.911Z,1.60
2022-09-20T11:06:08.996Z,2.30
2022-09-20T11:08:39.860Z,2.17
2022-09-20T11:11:17.049Z,3.35
2022-09-20T11:14:03.059Z,5.20
2022-09-20T11:16:39.227Z,2.63
2022-09-20T11:19:13.911Z,2.55
2022-09-20T11:21:48.397Z,2.40
2022-09-20T11:24:28.272Z,3.10
2022-09-20T11:27:12.933Z,2.20
2022-09-20T11:29:45.893Z,1.88
2022-09-20T11:32:19.860Z,1.83
2022-09-20T11:34:48.941Z,1.98
2022-09-20T11:37:17.805Z,1.85
2022-09-20T11:39:44.097Z,3.65
2022-09-20T11:42:20.228Z,3.10
2022-09-20T11:44:50.603Z,2.33
2022-09-20T11:47:55.469Z,1.92
2022-09-20T11:51:08.859Z,1.58
2022-09-20T11:54:04.735Z,1.27
2022-09-20T11:56:34.547Z,1.60
2022-09-20T11:59:04.715Z,1.30
2022-09-20T12:01:41.433Z,2.15
2022-09-20T12:04:31.663Z,1.27
2022-09-20T12:07:26.417Z,0.95
2022-09-20T12:10:02.851Z,1.10
2022-09-20T12:12:47.816Z,1.00
2022-09-20T12:15:39.193Z,1.08
2022-09-20T12:18:29.112Z,1.33
2022-09-20T12:20:55.471Z,0.80
2022-09-20T12:23:42.930Z,0.90
2022-09-20T12:26:21.519Z,1.67
2022-09-20T12:28:52.303Z,1.30
2022-09-20T12:31:21.617Z,1.00
2022-09-20T12:34:09.151Z,1.15
2022-09-20T12:36:43.064Z,1.13
2022-09-20T12:39:10.942Z,1.88
2022-09-20T12:41:52.572Z,1.40
2022-09-20T12:44:32.683Z,1.10
2022-09-20T12:47:03.816Z,1.75
2022-09-20T12:50:30.314Z,1.30
2022-09-20T12:52:58.449Z,1.33
2022-09-20T12:55:27.600Z,1.50
2022-09-20T12:58:17.933Z,1.40
2022-09-20T13:00:59.274Z,1.55
2022-09-20T13:03:46.883Z,1.40
2022-09-20T13:06:19.203Z,1.80
2022-09-20T13:08:51.655Z,1.17
2022-09-20T13:11:23.653Z,1.58
2022-09-20T13:16:40.039Z,1.23
2022-09-20T13:19:16.209Z,0.70
2022-09-20T13:21:48.757Z,1.02
2022-09-20T13:24:20.568Z,1.23
2022-09-20T13:26:52.133Z,1.10
2022-09-20T13:29:33.237Z,0.90
2022-09-20T13:32:19.446Z,0.90
2022-09-20T13:35:29.444Z,1.17
2022-09-20T13:38:00.324Z,0.70
2022-09-20T13:40:33.609Z,1.30
2022-09-20T13:43:22.608Z,1.10
2022-09-20T13:45:53.776Z,0.80
2022-09-20T13:48:24.632Z,1.15
2022-09-20T13:50:53.602Z,1.42
2022-09-20T13:53:40.637Z,1.42
2022-09-20T13:56:20.149Z,1.38
2022-09-20T13:58:46.880Z,1.00
2022-09-20T14:01:48.873Z,1.40
2022-09-20T14:04:18.682Z,1.38
2022-09-20T14:06:45.443Z,0.93
2022-09-20T14:09:27.297Z,1.08
2022-09-20T14:11:54.855Z,1.60
2022-09-20T14:14:30.862Z,1.60
2022-09-20T14:16:59.519Z,1.33
2022-09-20T14:19:32.770Z,1.55
2022-09-20T14:22:03.747Z,1.25
2022-09-20T14:24:35.300Z,1.10
2022-09-20T14:27:17.607Z,1.50
2022-09-20T14:29:47.380Z,1.40
2022-09-20T14:32:22.510Z,1.02
2022-09-20T14:35:12.565Z,1.27
2022-09-20T14:38:17.693Z,1.00
2022-09-20T14:40:47.096Z,1.23
2022-09-20T14:43:34.543Z,1.30
2022-09-20T14:46:04.826Z,1.52
2022-09-20T14:48:37.418Z,1.30
2022-09-20T14:51:16.189Z,1.40
2022-09-20T14:53:44.304Z,1.50
2022-09-20T14:56:13.106Z,1.40
2022-09-20T14:59:06.712Z,1.48
2022-09-20T15:01:34.585Z,1.10
2022-09-20T15:04:15.313Z,1.17
2022-09-20T15:06:42.924Z,1.20
2022-09-20T15:09:15.652Z,1.17
2022-09-20T15:11:42.226Z,1.73
2022-09-20T15:14:08.687Z,1.35
2022-09-20T15:16:35.497Z,1.55
2022-09-20T15:19:08.469Z,1.20
2022-09-20T15:21:34.940Z,1.50
2022-09-20T15:24:01.603Z,1.70
2022-09-20T15:26:32.824Z,1.17
2022-09-20T15:28:59.968Z,1.30
2022-09-20T15:31:27.449Z,1.02
2022-09-20T15:33:53.882Z,0.93
2022-09-20T15:36:20.415Z,1.00
2022-09-20T15:38:49.388Z,1.13
2022-09-20T15:41:15.766Z,1.13
2022-09-20T15:43:44.302Z,0.80
2022-09-20T15:46:22.537Z,1.23
2022-09-20T15:48:49.033Z,1.02
2022-09-20T15:51:16.395Z,0.90
2022-09-20T15:53:49.340Z,0.82
2022-09-20T15:56:21.730Z,1.20
2022-09-20T15:58:58.924Z,1.17
2022-09-20T16:01:35.461Z,1.08
2022-09-20T16:04:17.414Z,1.10
2022-09-20T16:06:45.473Z,0.95
2022-09-20T16:09:12.598Z,0.88
2022-09-20T16:11:39.981Z,0.90
2022-09-20T16:14:06.860Z,1.15
2022-09-20T16:16:39.692Z,0.82
2022-09-20T16:19:22.131Z,1.73
2022-09-20T16:21:57.847Z,1.10
2022-09-20T16:24:30.514Z,0.90
2022-09-20T16:29:29.363Z,0.90
2022-09-20T16:31:57.553Z,0.90
2022-09-20T16:34:30.582Z,0.85
2022-09-20T16:37:11.854Z,6.75
2022-09-20T16:39:38.390Z,5.90
2022-09-20T16:42:06.568Z,1.95
2022-09-20T16:44:35.823Z,1.55
2022-09-20T16:47:07.972Z,1.90
2022-09-20T16:49:36.074Z,1.58
2022-09-20T16:52:07.046Z,1.20
2022-09-20T16:54:33.811Z,1.30
2022-09-20T16:57:00.555Z,1.33
2022-09-20T16:59:26.897Z,1.95
2022-09-20T17:01:53.333Z,1.52
2022-09-20T17:04:21.096Z,1.40
2022-09-20T17:06:49.174Z,2.05
2022-09-20T17:09:16.448Z,1.67
2022-09-20T17:11:45.966Z,1.52
2022-09-20T17:14:13.871Z,1.65
2022-09-20T17:16:41.992Z,1.73
2022-09-20T17:19:15.715Z,1.77
2022-09-20T17:21:49.143Z,1.25
2022-09-20T17:24:18.981Z,2.45
2022-09-20T17:26:45.947Z,1.77
2022-09-20T17:29:15.256Z,1.70
2022-09-20T17:31:44.094Z,1.80
2022-09-20T17:34:12.180Z,2.47
2022-09-20T17:36:44.624Z,1.58
2022-09-20T17:39:12.860Z,1.40
2022-09-20T17:41:40.929Z,2.10
2022-09-20T17:44:12.077Z,1.92
2022-09-20T17:46:40.363Z,1.30
2022-09-20T17:49:11.350Z,2.70
2022-09-20T17:51:40.673Z,2.97
2022-09-20T17:54:13.504Z,2.17
2022-09-20T17:56:43.684Z,2.30
2022-09-20T17:59:11.869Z,1.98
2022-09-20T18:01:40.185Z,2.55
2022-09-20T18:04:07.706Z,2.60
2022-09-20T18:06:37.277Z,1.92
2022-09-20T18:09:08.956Z,1.83
2022-09-20T18:11:40.894Z,1.70
2022-09-20T18:14:10.971Z,2.10
2022-09-20T18:16:38.759Z,1.67
2022-09-20T18:19:07.974Z,2.75
2022-09-20T18:21:36.124Z,2.42
2022-09-20T18:24:05.859Z,2.33
2022-09-20T18:26:32.838Z,5.47
2022-09-20T18:29:12.196Z,11.65
2022-09-20T18:31:45.737Z,6.05
2022-09-20T18:34:18.226Z,4.20
2022-09-20T18:36:53.426Z,4.50
2022-09-20T18:39:24.449Z,3.67
2022-09-20T18:41:51.372Z,2.58
2022-09-20T18:44:20.400Z,2.70
2022-09-20T18:46:47.676Z,1.85
2022-09-20T18:49:16.215Z,2.47
2022-09-20T18:51:46.266Z,2.10
2022-09-20T18:54:12.952Z,1.70
2022-09-20T18:56:48.632Z,1.88
2022-09-20T18:59:20.194Z,1.60
2022-09-20T19:02:05.433Z,2.63
2022-09-20T19:05:00.230Z,1.73
2022-09-20T19:07:51.001Z,2.35
2022-09-20T19:10:37.370Z,1.77
2022-09-20T19:13:29.130Z,2.20
2022-09-20T19:16:10.111Z,2.00
2022-09-20T19:18:58.814Z,1.80
2022-09-20T19:21:36.945Z,1.42
2022-09-20T19:24:22.371Z,1.50
2022-09-20T19:26:49.331Z,1.67
2022-09-20T19:29:26.819Z,1.20
2022-09-20T19:31:56.155Z,3.10
2022-09-20T19:34:24.171Z,3.85
2022-09-20T19:37:19.122Z,2.70
2022-09-20T19:40:12.455Z,2.22
2022-09-20T19:43:03.055Z,1.90
2022-09-20T19:46:06.082Z,3.30
2022-09-20T19:48:39.846Z,4.25
2022-09-20T19:51:11.646Z,3.83
2022-09-20T19:53:39.202Z,3.20
2022-09-20T19:56:23.739Z,4.43
2022-09-20T19:58:53.146Z,4.45
2022-09-20T20:01:26.456Z,4.80
2022-09-20T20:03:56.642Z,3.78
2022-09-20T20:06:37.842Z,4.35
2022-09-20T20:09:11.527Z,5.57
2022-09-20T20:11:56.933Z,4.57
2022-09-20T20:14:41.955Z,3.42
2022-09-20T20:17:17.533Z,4.43
2022-09-20T20:20:00.739Z,3.15
2022-09-20T20:23:01.476Z,4.03
2022-09-20T20:25:45.175Z,4.25
2022-09-20T20:28:11.604Z,3.30
2022-09-20T20:30:38.029Z,3.55
2022-09-20T20:33:05.978Z,2.88
2022-09-20T20:35:32.513Z,3.50
2022-09-20T20:37:58.852Z,4.13
2022-09-20T20:40:28.325Z,3.10
2022-09-20T20:43:02.048Z,3.35
2022-09-20T20:45:29.561Z,3.33
2022-09-20T20:47:58.514Z,3.35
2022-09-20T20:50:27.007Z,3.83
2022-09-20T20:52:54.892Z,3.88
2022-09-20T20:55:24.613Z,3.05
2022-09-20T20:57:58.265Z,4.20
2022-09-20T21:00:26.270Z,3.75
2022-09-20T21:03:00.226Z,4.38
2022-09-20T21:05:28.047Z,4.35
2022-09-20T21:07:54.923Z,3.63
2022-09-20T21:10:26.739Z,3.70
2022-09-20T21:12:59.654Z,4.28
2022-09-20T21:15:28.625Z,3.95
2022-09-20T21:17:55.149Z,3.30
2022-09-20T21:20:22.244Z,3.45
2022-09-20T21:22:53.793Z,3.33
2022-09-20T21:25:20.119Z,3.80
2022-09-20T21:27:46.485Z,3.28
2022-09-20T21:30:13.229Z,4.90
2022-09-20T21:32:39.572Z,3.42
2022-09-20T21:35:06.288Z,4.43
2022-09-20T21:37:37.604Z,3.85
2022-09-20T21:40:04.290Z,2.50
2022-09-20T21:42:30.681Z,2.88
2022-09-20T21:44:59.472Z,4.55
2022-09-20T21:47:25.867Z,3.95
2022-09-20T21:49:52.525Z,5.38
2022-09-20T21:52:19.032Z,3.28
2022-09-20T21:54:47.790Z,4.05
2022-09-20T21:57:14.530Z,4.65
2022-09-20T21:59:41.547Z,3.30
2022-09-20T22:02:09.001Z,4.28
2022-09-20T22:04:35.970Z,3.58
2022-09-20T22:07:03.952Z,4.22
2022-09-20T22:09:30.532Z,3.55
2022-09-20T22:11:56.920Z,3.72
2022-09-20T22:14:23.359Z,4.03
2022-09-20T22:16:52.616Z,4.13
2022-09-20T22:19:21.382Z,2.65
2022-09-20T22:21:50.232Z,5.00
2022-09-20T22:24:17.345Z,4.20
2022-09-20T22:26:46.881Z,3.88
2022-09-20T22:29:16.464Z,3.20
2022-09-20T22:31:49.897Z,2.90
2022-09-20T22:34:18.852Z,3.00
2022-09-20T22:36:45.821Z,2.30
2022-09-20T22:39:12.894Z,1.85
2022-09-20T22:41:41.154Z,1.90
2022-09-20T22:44:10.239Z,2.00
2022-09-20T22:46:38.130Z,2.22
2022-09-20T22:49:08.674Z,2.60
2022-09-20T22:51:37.712Z,2.63
2022-09-20T22:54:09.977Z,3.35
2022-09-20T22:59:12.405Z,2.55
2022-09-20T23:01:44.592Z,3.70
2022-09-20T23:06:54.496Z,3.38
2022-09-20T23:09:23.108Z,1.88
2022-09-20T23:11:49.863Z,1.83
2022-09-20T23:14:21.243Z,2.58
2022-09-20T23:16:47.883Z,3.03
2022-09-20T23:19:22.291Z,2.60
2022-09-20T23:21:51.517Z,1.83
2022-09-20T23:24:17.881Z,1.90
2022-09-20T23:26:44.742Z,2.40
2022-09-20T23:29:15.995Z,1.98
2022-09-20T23:31:46.417Z,2.65
2022-09-20T23:34:18.678Z,2.20
2022-09-20T23:36:46.136Z,2.30
2022-09-20T23:39:13.184Z,3.05
2022-09-20T23:41:41.180Z,2.60
2022-09-20T23:44:09.748Z,2.40
2022-09-20T23:46:36.863Z,2.40
2022-09-20T23:49:03.639Z,2.33
2022-09-20T23:51:32.606Z,1.65
2022-09-20T23:53:58.976Z,2.10
2022-09-20T23:56:26.749Z,2.10
2022-09-20T23:58:53.969Z,2.95
